sensor_id;sensor_type;location;lat;lon;timestamp;P1;durP1;ratioP1;P2;durP2;ratioP2
1721;SDS011;858;53.190;8.596;2023-05-27T00:00:55;21.17;;;5.00;;
1721;SDS011;858;53.190;8.596;2023-05-27T00:03:22;12.83;;;5.73;;
1721;SDS011;858;53.190;8.596;2023-05-27T00:05:48;13.90;;;5.50;;
1721;SDS011;858;53.190;8.596;2023-05-27T00:08:14;16.10;;;5.17;;
1721;SDS011;858;53.190;8.596;2023-05-27T00:10:42;9.63;;;4.63;;
1721;SDS011;858;53.190;8.596;2023-05-27T00:13:08;19.10;;;5.00;;
1721;SDS011;858;53.190;8.596;2023-05-27T00:15:37;9.97;;;3.97;;
1721;SDS011;858;53.190;8.596;2023-05-27T00:18:05;13.73;;;5.17;;
1721;SDS011;858;53.190;8.596;2023-05-27T00:20:32;11.13;;;4.87;;
1721;SDS011;858;53.190;8.596;2023-05-27T00:22:58;11.80;;;5.17;;
1721;SDS011;858;53.190;8.596;2023-05-27T00:25:25;19.40;;;5.93;;
1721;SDS011;858;53.190;8.596;2023-05-27T00:27:51;21.37;;;6.80;;
1721;SDS011;858;53.190;8.596;2023-05-27T00:30:18;18.03;;;5.87;;
1721;SDS011;858;53.190;8.596;2023-05-27T00:32:44;15.77;;;6.73;;
1721;SDS011;858;53.190;8.596;2023-05-27T00:35:12;12.60;;;4.77;;
1721;SDS011;858;53.190;8.596;2023-05-27T00:37:38;18.40;;;6.50;;
1721;SDS011;858;53.190;8.596;2023-05-27T00:40:05;15.53;;;5.83;;
1721;SDS011;858;53.190;8.596;2023-05-27T00:42:34;17.07;;;6.57;;
1721;SDS011;858;53.190;8.596;2023-05-27T00:45:00;11.53;;;4.80;;
1721;SDS011;858;53.190;8.596;2023-05-27T00:47:26;9.43;;;4.57;;
1721;SDS011;858;53.190;8.596;2023-05-27T00:49:55;11.80;;;4.80;;
1721;SDS011;858;53.190;8.596;2023-05-27T00:52:23;10.23;;;5.37;;
1721;SDS011;858;53.190;8.596;2023-05-27T00:54:49;14.93;;;5.50;;
1721;SDS011;858;53.190;8.596;2023-05-27T00:57:16;18.10;;;6.00;;
1721;SDS011;858;53.190;8.596;2023-05-27T00:59:43;15.03;;;5.37;;
1721;SDS011;858;53.190;8.596;2023-05-27T01:02:10;11.03;;;5.50;;
1721;SDS011;858;53.190;8.596;2023-05-27T01:04:37;13.50;;;4.97;;
1721;SDS011;858;53.190;8.596;2023-05-27T01:07:05;12.30;;;5.87;;
1721;SDS011;858;53.190;8.596;2023-05-27T01:09:37;15.47;;;4.90;;
1721;SDS011;858;53.190;8.596;2023-05-27T01:12:07;12.33;;;4.67;;
1721;SDS011;858;53.190;8.596;2023-05-27T01:14:34;16.93;;;6.60;;
1721;SDS011;858;53.190;8.596;2023-05-27T01:17:03;12.00;;;5.90;;
1721;SDS011;858;53.190;8.596;2023-05-27T01:19:33;17.00;;;6.07;;
1721;SDS011;858;53.190;8.596;2023-05-27T01:22:00;15.63;;;6.27;;
1721;SDS011;858;53.190;8.596;2023-05-27T01:24:28;14.93;;;5.03;;
1721;SDS011;858;53.190;8.596;2023-05-27T01:26:55;18.10;;;5.77;;
1721;SDS011;858;53.190;8.596;2023-05-27T01:29:21;21.87;;;6.03;;
1721;SDS011;858;53.190;8.596;2023-05-27T01:31:50;20.30;;;5.87;;
1721;SDS011;858;53.190;8.596;2023-05-27T01:34:18;16.67;;;5.90;;
1721;SDS011;858;53.190;8.596;2023-05-27T01:36:47;20.27;;;4.80;;
1721;SDS011;858;53.190;8.596;2023-05-27T01:39:13;16.10;;;5.43;;
1721;SDS011;858;53.190;8.596;2023-05-27T01:41:42;12.53;;;5.63;;
1721;SDS011;858;53.190;8.596;2023-05-27T01:44:09;17.50;;;4.77;;
1721;SDS011;858;53.190;8.596;2023-05-27T01:46:36;11.83;;;5.30;;
1721;SDS011;858;53.190;8.596;2023-05-27T01:49:02;15.73;;;5.77;;
1721;SDS011;858;53.190;8.596;2023-05-27T01:51:28;14.80;;;4.20;;
1721;SDS011;858;53.190;8.596;2023-05-27T01:53:55;12.63;;;4.60;;
1721;SDS011;858;53.190;8.596;2023-05-27T01:56:21;13.53;;;6.47;;
1721;SDS011;858;53.190;8.596;2023-05-27T01:58:50;12.63;;;5.00;;
1721;SDS011;858;53.190;8.596;2023-05-27T02:01:16;17.03;;;4.40;;
1721;SDS011;858;53.190;8.596;2023-05-27T02:03:42;12.93;;;4.97;;
1721;SDS011;858;53.190;8.596;2023-05-27T02:06:08;15.60;;;5.10;;
1721;SDS011;858;53.190;8.596;2023-05-27T02:08:35;16.20;;;4.67;;
1721;SDS011;858;53.190;8.596;2023-05-27T02:11:01;18.07;;;4.43;;
1721;SDS011;858;53.190;8.596;2023-05-27T02:13:28;14.53;;;4.73;;
1721;SDS011;858;53.190;8.596;2023-05-27T02:15:55;14.03;;;5.90;;
1721;SDS011;858;53.190;8.596;2023-05-27T02:18:22;12.50;;;4.73;;
1721;SDS011;858;53.190;8.596;2023-05-27T02:20:50;17.33;;;6.70;;
1721;SDS011;858;53.190;8.596;2023-05-27T02:23:17;16.93;;;5.47;;
1721;SDS011;858;53.190;8.596;2023-05-27T02:25:43;17.63;;;5.07;;
1721;SDS011;858;53.190;8.596;2023-05-27T02:28:09;16.50;;;4.57;;
1721;SDS011;858;53.190;8.596;2023-05-27T02:30:35;13.07;;;4.50;;
1721;SDS011;858;53.190;8.596;2023-05-27T02:33:03;9.40;;;4.33;;
1721;SDS011;858;53.190;8.596;2023-05-27T02:35:30;13.90;;;5.10;;
1721;SDS011;858;53.190;8.596;2023-05-27T02:37:56;9.33;;;3.80;;
1721;SDS011;858;53.190;8.596;2023-05-27T02:40:23;11.50;;;5.03;;
1721;SDS011;858;53.190;8.596;2023-05-27T02:42:50;9.83;;;4.20;;
1721;SDS011;858;53.190;8.596;2023-05-27T02:45:17;10.60;;;4.83;;
1721;SDS011;858;53.190;8.596;2023-05-27T02:47:43;10.97;;;4.17;;
1721;SDS011;858;53.190;8.596;2023-05-27T02:50:11;17.10;;;5.60;;
1721;SDS011;858;53.190;8.596;2023-05-27T02:52:37;18.00;;;5.13;;
1721;SDS011;858;53.190;8.596;2023-05-27T02:55:04;21.50;;;4.60;;
1721;SDS011;858;53.190;8.596;2023-05-27T02:57:31;22.90;;;6.23;;
1721;SDS011;858;53.190;8.596;2023-05-27T02:59:59;16.53;;;6.80;;
1721;SDS011;858;53.190;8.596;2023-05-27T03:02:25;17.90;;;6.90;;
1721;SDS011;858;53.190;8.596;2023-05-27T03:04:51;18.93;;;5.30;;
1721;SDS011;858;53.190;8.596;2023-05-27T03:07:21;16.00;;;5.20;;
1721;SDS011;858;53.190;8.596;2023-05-27T03:09:48;15.13;;;5.70;;
1721;SDS011;858;53.190;8.596;2023-05-27T03:12:14;16.50;;;6.20;;
1721;SDS011;858;53.190;8.596;2023-05-27T03:14:41;15.43;;;5.90;;
1721;SDS011;858;53.190;8.596;2023-05-27T03:17:07;24.50;;;6.90;;
1721;SDS011;858;53.190;8.596;2023-05-27T03:19:34;29.20;;;6.97;;
1721;SDS011;858;53.190;8.596;2023-05-27T03:22:00;16.90;;;6.20;;
1721;SDS011;858;53.190;8.596;2023-05-27T03:24:28;18.80;;;6.73;;
1721;SDS011;858;53.190;8.596;2023-05-27T03:26:55;13.93;;;5.00;;
1721;SDS011;858;53.190;8.596;2023-05-27T03:29:21;14.33;;;5.13;;
1721;SDS011;858;53.190;8.596;2023-05-27T03:31:47;12.00;;;4.33;;
1721;SDS011;858;53.190;8.596;2023-05-27T03:34:14;11.30;;;5.10;;
1721;SDS011;858;53.190;8.596;2023-05-27T03:36:40;14.80;;;5.90;;
1721;SDS011;858;53.190;8.596;2023-05-27T03:39:08;9.73;;;4.50;;
1721;SDS011;858;53.190;8.596;2023-05-27T03:41:36;13.90;;;4.43;;
1721;SDS011;858;53.190;8.596;2023-05-27T03:44:02;16.00;;;5.40;;
1721;SDS011;858;53.190;8.596;2023-05-27T03:46:29;13.77;;;4.97;;
1721;SDS011;858;53.190;8.596;2023-05-27T03:48:57;10.27;;;5.20;;
1721;SDS011;858;53.190;8.596;2023-05-27T03:51:23;6.50;;;4.67;;
1721;SDS011;858;53.190;8.596;2023-05-27T03:53:50;11.50;;;5.10;;
1721;SDS011;858;53.190;8.596;2023-05-27T03:56:16;15.57;;;6.33;;
1721;SDS011;858;53.190;8.596;2023-05-27T03:58:44;11.53;;;5.60;;
1721;SDS011;858;53.190;8.596;2023-05-27T04:01:10;10.10;;;4.77;;
1721;SDS011;858;53.190;8.596;2023-05-27T04:03:38;14.27;;;5.03;;
1721;SDS011;858;53.190;8.596;2023-05-27T04:06:06;12.37;;;5.60;;
1721;SDS011;858;53.190;8.596;2023-05-27T04:08:32;12.27;;;5.23;;
1721;SDS011;858;53.190;8.596;2023-05-27T04:11:00;15.90;;;6.63;;
1721;SDS011;858;53.190;8.596;2023-05-27T04:13:28;18.97;;;6.20;;
1721;SDS011;858;53.190;8.596;2023-05-27T04:15:56;8.23;;;4.60;;
1721;SDS011;858;53.190;8.596;2023-05-27T04:18:24;13.80;;;5.27;;
1721;SDS011;858;53.190;8.596;2023-05-27T04:20:50;17.13;;;5.13;;
1721;SDS011;858;53.190;8.596;2023-05-27T04:23:17;11.33;;;5.97;;
1721;SDS011;858;53.190;8.596;2023-05-27T04:25:43;9.67;;;5.87;;
1721;SDS011;858;53.190;8.596;2023-05-27T04:28:10;21.90;;;6.80;;
1721;SDS011;858;53.190;8.596;2023-05-27T04:30:36;13.73;;;5.50;;
1721;SDS011;858;53.190;8.596;2023-05-27T04:33:06;8.83;;;4.73;;
1721;SDS011;858;53.190;8.596;2023-05-27T04:35:33;11.37;;;5.37;;
1721;SDS011;858;53.190;8.596;2023-05-27T04:37:59;12.87;;;5.63;;
1721;SDS011;858;53.190;8.596;2023-05-27T04:40:27;13.10;;;4.87;;
1721;SDS011;858;53.190;8.596;2023-05-27T04:42:53;17.50;;;5.47;;
1721;SDS011;858;53.190;8.596;2023-05-27T04:45:20;9.30;;;4.80;;
1721;SDS011;858;53.190;8.596;2023-05-27T04:47:46;10.57;;;5.40;;
1721;SDS011;858;53.190;8.596;2023-05-27T04:50:14;12.10;;;5.27;;
1721;SDS011;858;53.190;8.596;2023-05-27T04:52:41;13.60;;;5.73;;
1721;SDS011;858;53.190;8.596;2023-05-27T04:55:08;14.10;;;6.63;;
1721;SDS011;858;53.190;8.596;2023-05-27T04:57:35;17.70;;;5.70;;
1721;SDS011;858;53.190;8.596;2023-05-27T05:00:06;18.10;;;5.43;;
1721;SDS011;858;53.190;8.596;2023-05-27T05:02:48;22.30;;;6.40;;
1721;SDS011;858;53.190;8.596;2023-05-27T05:05:16;18.63;;;6.83;;
1721;SDS011;858;53.190;8.596;2023-05-27T05:07:42;19.00;;;8.23;;
1721;SDS011;858;53.190;8.596;2023-05-27T05:10:09;23.70;;;6.73;;
1721;SDS011;858;53.190;8.596;2023-05-27T05:12:35;14.93;;;7.23;;
1721;SDS011;858;53.190;8.596;2023-05-27T05:15:02;16.77;;;6.80;;
1721;SDS011;858;53.190;8.596;2023-05-27T05:17:29;19.43;;;6.30;;
1721;SDS011;858;53.190;8.596;2023-05-27T05:19:55;17.77;;;6.70;;
1721;SDS011;858;53.190;8.596;2023-05-27T05:22:23;25.20;;;8.97;;
1721;SDS011;858;53.190;8.596;2023-05-27T05:24:51;15.60;;;6.37;;
1721;SDS011;858;53.190;8.596;2023-05-27T05:27:17;11.07;;;6.37;;
1721;SDS011;858;53.190;8.596;2023-05-27T05:29:44;18.60;;;6.80;;
1721;SDS011;858;53.190;8.596;2023-05-27T05:32:11;17.13;;;6.90;;
1721;SDS011;858;53.190;8.596;2023-05-27T05:34:38;15.70;;;6.20;;
1721;SDS011;858;53.190;8.596;2023-05-27T05:37:04;17.97;;;6.73;;
1721;SDS011;858;53.190;8.596;2023-05-27T05:39:32;13.27;;;6.73;;
1721;SDS011;858;53.190;8.596;2023-05-27T05:41:59;20.17;;;6.17;;
1721;SDS011;858;53.190;8.596;2023-05-27T05:44:26;16.07;;;6.67;;
1721;SDS011;858;53.190;8.596;2023-05-27T05:46:52;20.20;;;7.30;;
1721;SDS011;858;53.190;8.596;2023-05-27T05:49:19;19.47;;;6.97;;
1721;SDS011;858;53.190;8.596;2023-05-27T05:51:45;21.10;;;8.00;;
1721;SDS011;858;53.190;8.596;2023-05-27T05:54:12;18.17;;;6.07;;
1721;SDS011;858;53.190;8.596;2023-05-27T05:56:39;17.70;;;6.57;;
1721;SDS011;858;53.190;8.596;2023-05-27T05:59:06;14.67;;;5.67;;
1721;SDS011;858;53.190;8.596;2023-05-27T06:01:32;21.77;;;6.40;;
1721;SDS011;858;53.190;8.596;2023-05-27T06:04:00;14.90;;;5.83;;
1721;SDS011;858;53.190;8.596;2023-05-27T06:06:29;16.53;;;6.17;;
1721;SDS011;858;53.190;8.596;2023-05-27T06:08:56;25.73;;;7.30;;
1721;SDS011;858;53.190;8.596;2023-05-27T06:11:23;24.50;;;6.33;;
1721;SDS011;858;53.190;8.596;2023-05-27T06:13:52;22.97;;;6.63;;
1721;SDS011;858;53.190;8.596;2023-05-27T06:16:18;11.00;;;5.20;;
1721;SDS011;858;53.190;8.596;2023-05-27T06:18:45;10.90;;;5.70;;
1721;SDS011;858;53.190;8.596;2023-05-27T06:21:11;19.67;;;5.57;;
1721;SDS011;858;53.190;8.596;2023-05-27T06:23:37;13.10;;;5.60;;
1721;SDS011;858;53.190;8.596;2023-05-27T06:26:04;11.27;;;5.10;;
1721;SDS011;858;53.190;8.596;2023-05-27T06:28:30;15.73;;;5.80;;
1721;SDS011;858;53.190;8.596;2023-05-27T06:30:59;16.70;;;5.13;;
1721;SDS011;858;53.190;8.596;2023-05-27T06:33:25;11.43;;;5.20;;
1721;SDS011;858;53.190;8.596;2023-05-27T06:35:51;15.80;;;5.40;;
1721;SDS011;858;53.190;8.596;2023-05-27T06:38:18;23.10;;;5.93;;
1721;SDS011;858;53.190;8.596;2023-05-27T06:40:44;16.90;;;4.90;;
1721;SDS011;858;53.190;8.596;2023-05-27T06:43:10;10.60;;;5.90;;
1721;SDS011;858;53.190;8.596;2023-05-27T06:45:36;10.50;;;5.87;;
1721;SDS011;858;53.190;8.596;2023-05-27T06:48:04;18.23;;;5.47;;
1721;SDS011;858;53.190;8.596;2023-05-27T06:50:31;11.60;;;6.20;;
1721;SDS011;858;53.190;8.596;2023-05-27T06:52:57;16.37;;;6.10;;
1721;SDS011;858;53.190;8.596;2023-05-27T06:55:23;20.93;;;5.50;;
1721;SDS011;858;53.190;8.596;2023-05-27T06:57:50;16.53;;;5.30;;
1721;SDS011;858;53.190;8.596;2023-05-27T07:00:18;20.50;;;6.23;;
1721;SDS011;858;53.190;8.596;2023-05-27T07:02:44;22.00;;;5.83;;
1721;SDS011;858;53.190;8.596;2023-05-27T07:05:12;12.50;;;5.00;;
1721;SDS011;858;53.190;8.596;2023-05-27T07:07:38;11.47;;;5.33;;
1721;SDS011;858;53.190;8.596;2023-05-27T07:10:05;21.10;;;5.60;;
1721;SDS011;858;53.190;8.596;2023-05-27T07:12:31;21.80;;;6.13;;
1721;SDS011;858;53.190;8.596;2023-05-27T07:14:58;19.20;;;6.37;;
1721;SDS011;858;53.190;8.596;2023-05-27T07:17:24;15.30;;;5.97;;
1721;SDS011;858;53.190;8.596;2023-05-27T07:19:50;11.50;;;5.70;;
1721;SDS011;858;53.190;8.596;2023-05-27T07:22:18;12.10;;;6.73;;
1721;SDS011;858;53.190;8.596;2023-05-27T07:24:44;27.43;;;6.63;;
1721;SDS011;858;53.190;8.596;2023-05-27T07:27:11;15.10;;;5.50;;
1721;SDS011;858;53.190;8.596;2023-05-27T07:29:37;16.10;;;6.80;;
1721;SDS011;858;53.190;8.596;2023-05-27T07:32:03;11.80;;;6.13;;
1721;SDS011;858;53.190;8.596;2023-05-27T07:34:30;18.87;;;6.80;;
1721;SDS011;858;53.190;8.596;2023-05-27T07:36:57;16.30;;;5.70;;
1721;SDS011;858;53.190;8.596;2023-05-27T07:39:25;14.90;;;5.70;;
1721;SDS011;858;53.190;8.596;2023-05-27T07:41:51;20.40;;;6.93;;
1721;SDS011;858;53.190;8.596;2023-05-27T07:44:18;15.43;;;5.63;;
1721;SDS011;858;53.190;8.596;2023-05-27T07:46:44;16.30;;;6.07;;
1721;SDS011;858;53.190;8.596;2023-05-27T07:49:10;15.20;;;6.77;;
1721;SDS011;858;53.190;8.596;2023-05-27T07:51:37;13.13;;;6.27;;
1721;SDS011;858;53.190;8.596;2023-05-27T07:54:03;14.80;;;5.80;;
1721;SDS011;858;53.190;8.596;2023-05-27T07:56:31;10.67;;;6.07;;
1721;SDS011;858;53.190;8.596;2023-05-27T07:58:59;15.33;;;6.10;;
1721;SDS011;858;53.190;8.596;2023-05-27T08:01:25;19.37;;;6.40;;
1721;SDS011;858;53.190;8.596;2023-05-27T08:03:55;14.53;;;6.17;;
1721;SDS011;858;53.190;8.596;2023-05-27T08:06:21;16.30;;;6.60;;
1721;SDS011;858;53.190;8.596;2023-05-27T08:08:48;14.57;;;6.80;;
1721;SDS011;858;53.190;8.596;2023-05-27T08:11:14;20.30;;;8.23;;
1721;SDS011;858;53.190;8.596;2023-05-27T08:13:42;26.97;;;12.03;;
1721;SDS011;858;53.190;8.596;2023-05-27T08:16:08;22.73;;;7.70;;
1721;SDS011;858;53.190;8.596;2023-05-27T08:18:35;17.73;;;6.83;;
1721;SDS011;858;53.190;8.596;2023-05-27T08:21:01;14.60;;;7.03;;
1721;SDS011;858;53.190;8.596;2023-05-27T08:23:28;19.10;;;7.90;;
1721;SDS011;858;53.190;8.596;2023-05-27T08:25:54;20.80;;;9.50;;
1721;SDS011;858;53.190;8.596;2023-05-27T08:28:20;21.20;;;8.53;;
1721;SDS011;858;53.190;8.596;2023-05-27T08:30:48;28.13;;;14.83;;
1721;SDS011;858;53.190;8.596;2023-05-27T08:33:15;26.40;;;13.97;;
1721;SDS011;858;53.190;8.596;2023-05-27T08:35:41;23.13;;;10.70;;
1721;SDS011;858;53.190;8.596;2023-05-27T08:38:08;24.93;;;9.47;;
1721;SDS011;858;53.190;8.596;2023-05-27T08:40:34;22.63;;;8.30;;
1721;SDS011;858;53.190;8.596;2023-05-27T08:43:01;17.90;;;9.07;;
1721;SDS011;858;53.190;8.596;2023-05-27T08:45:28;22.70;;;8.83;;
1721;SDS011;858;53.190;8.596;2023-05-27T08:47:56;14.30;;;7.90;;
1721;SDS011;858;53.190;8.596;2023-05-27T08:50:23;18.90;;;9.30;;
1721;SDS011;858;53.190;8.596;2023-05-27T08:52:50;23.03;;;8.90;;
1721;SDS011;858;53.190;8.596;2023-05-27T08:55:20;25.27;;;9.07;;
1721;SDS011;858;53.190;8.596;2023-05-27T08:57:48;16.67;;;7.37;;
1721;SDS011;858;53.190;8.596;2023-05-27T09:00:16;18.93;;;7.43;;
1721;SDS011;858;53.190;8.596;2023-05-27T09:02:42;13.13;;;6.83;;
1721;SDS011;858;53.190;8.596;2023-05-27T09:05:10;20.40;;;8.67;;
1721;SDS011;858;53.190;8.596;2023-05-27T09:07:37;16.33;;;7.43;;
1721;SDS011;858;53.190;8.596;2023-05-27T09:10:04;19.13;;;8.27;;
1721;SDS011;858;53.190;8.596;2023-05-27T09:12:31;25.10;;;8.80;;
1721;SDS011;858;53.190;8.596;2023-05-27T09:14:58;19.27;;;8.80;;
1721;SDS011;858;53.190;8.596;2023-05-27T09:17:24;18.80;;;8.43;;
1721;SDS011;858;53.190;8.596;2023-05-27T09:19:52;17.30;;;7.47;;
1721;SDS011;858;53.190;8.596;2023-05-27T09:22:21;20.73;;;8.50;;
1721;SDS011;858;53.190;8.596;2023-05-27T09:24:51;22.30;;;9.00;;
1721;SDS011;858;53.190;8.596;2023-05-27T09:27:18;15.20;;;6.90;;
1721;SDS011;858;53.190;8.596;2023-05-27T09:29:45;16.73;;;7.73;;
1721;SDS011;858;53.190;8.596;2023-05-27T09:32:11;18.43;;;7.60;;
1721;SDS011;858;53.190;8.596;2023-05-27T09:34:38;14.70;;;6.40;;
1721;SDS011;858;53.190;8.596;2023-05-27T09:37:04;15.17;;;5.87;;
1721;SDS011;858;53.190;8.596;2023-05-27T09:39:32;15.30;;;7.20;;
1721;SDS011;858;53.190;8.596;2023-05-27T09:41:59;15.90;;;7.20;;
1721;SDS011;858;53.190;8.596;2023-05-27T09:44:27;19.07;;;6.67;;
1721;SDS011;858;53.190;8.596;2023-05-27T09:46:53;12.77;;;6.70;;
1721;SDS011;858;53.190;8.596;2023-05-27T09:49:20;19.47;;;9.10;;
1721;SDS011;858;53.190;8.596;2023-05-27T09:51:46;18.07;;;6.83;;
1721;SDS011;858;53.190;8.596;2023-05-27T09:54:16;25.23;;;9.90;;
1721;SDS011;858;53.190;8.596;2023-05-27T09:56:45;15.77;;;8.10;;
1721;SDS011;858;53.190;8.596;2023-05-27T09:59:11;28.30;;;10.97;;
1721;SDS011;858;53.190;8.596;2023-05-27T10:01:38;20.60;;;10.20;;
1721;SDS011;858;53.190;8.596;2023-05-27T10:04:05;18.23;;;9.30;;
1721;SDS011;858;53.190;8.596;2023-05-27T10:06:32;22.93;;;8.97;;
1721;SDS011;858;53.190;8.596;2023-05-27T10:09:00;17.47;;;7.90;;
1721;SDS011;858;53.190;8.596;2023-05-27T10:11:29;27.57;;;12.07;;
1721;SDS011;858;53.190;8.596;2023-05-27T10:13:58;19.53;;;11.37;;
1721;SDS011;858;53.190;8.596;2023-05-27T10:16:26;19.50;;;10.50;;
1721;SDS011;858;53.190;8.596;2023-05-27T10:18:52;24.73;;;11.10;;
1721;SDS011;858;53.190;8.596;2023-05-27T10:21:19;17.00;;;10.10;;
1721;SDS011;858;53.190;8.596;2023-05-27T10:23:52;22.57;;;10.10;;
1721;SDS011;858;53.190;8.596;2023-05-27T10:26:19;30.20;;;12.07;;
1721;SDS011;858;53.190;8.596;2023-05-27T10:28:46;24.00;;;11.20;;
1721;SDS011;858;53.190;8.596;2023-05-27T10:31:16;24.03;;;11.80;;
1721;SDS011;858;53.190;8.596;2023-05-27T10:33:43;24.37;;;12.10;;
1721;SDS011;858;53.190;8.596;2023-05-27T10:36:11;24.87;;;10.23;;
1721;SDS011;858;53.190;8.596;2023-05-27T10:38:38;15.10;;;9.83;;
1721;SDS011;858;53.190;8.596;2023-05-27T10:41:05;18.83;;;10.50;;
1721;SDS011;858;53.190;8.596;2023-05-27T10:43:32;18.43;;;9.80;;
1721;SDS011;858;53.190;8.596;2023-05-27T10:46:03;20.33;;;8.00;;
1721;SDS011;858;53.190;8.596;2023-05-27T10:48:31;15.07;;;9.13;;
1721;SDS011;858;53.190;8.596;2023-05-27T10:50:58;22.80;;;9.43;;
1721;SDS011;858;53.190;8.596;2023-05-27T10:53:25;12.43;;;9.80;;
1721;SDS011;858;53.190;8.596;2023-05-27T10:55:53;13.17;;;8.07;;
1721;SDS011;858;53.190;8.596;2023-05-27T10:58:20;15.87;;;8.23;;
1721;SDS011;858;53.190;8.596;2023-05-27T11:00:47;24.60;;;10.50;;
1721;SDS011;858;53.190;8.596;2023-05-27T11:03:18;20.37;;;10.17;;
1721;SDS011;858;53.190;8.596;2023-05-27T11:05:47;24.27;;;10.03;;
1721;SDS011;858;53.190;8.596;2023-05-27T11:08:14;27.20;;;8.67;;
1721;SDS011;858;53.190;8.596;2023-05-27T11:10:40;15.57;;;8.27;;
1721;SDS011;858;53.190;8.596;2023-05-27T11:13:07;20.60;;;9.20;;
1721;SDS011;858;53.190;8.596;2023-05-27T11:15:33;17.80;;;7.57;;
1721;SDS011;858;53.190;8.596;2023-05-27T11:18:00;19.47;;;7.67;;
1721;SDS011;858;53.190;8.596;2023-05-27T11:20:33;14.73;;;7.33;;
1721;SDS011;858;53.190;8.596;2023-05-27T11:23:01;15.87;;;7.97;;
1721;SDS011;858;53.190;8.596;2023-05-27T11:25:27;15.37;;;7.50;;
1721;SDS011;858;53.190;8.596;2023-05-27T11:27:53;17.27;;;8.70;;
1721;SDS011;858;53.190;8.596;2023-05-27T11:30:23;20.00;;;9.03;;
1721;SDS011;858;53.190;8.596;2023-05-27T11:32:49;15.90;;;9.07;;
1721;SDS011;858;53.190;8.596;2023-05-27T11:35:17;22.80;;;8.43;;
1721;SDS011;858;53.190;8.596;2023-05-27T11:37:46;12.97;;;8.17;;
1721;SDS011;858;53.190;8.596;2023-05-27T11:40:14;11.33;;;7.10;;
1721;SDS011;858;53.190;8.596;2023-05-27T11:42:43;22.70;;;8.03;;
1721;SDS011;858;53.190;8.596;2023-05-27T11:45:14;18.10;;;8.37;;
1721;SDS011;858;53.190;8.596;2023-05-27T11:47:41;18.53;;;7.60;;
1721;SDS011;858;53.190;8.596;2023-05-27T11:50:08;20.70;;;7.60;;
1721;SDS011;858;53.190;8.596;2023-05-27T11:52:35;15.57;;;7.13;;
1721;SDS011;858;53.190;8.596;2023-05-27T11:55:02;8.20;;;6.53;;
1721;SDS011;858;53.190;8.596;2023-05-27T11:57:30;10.43;;;6.40;;
1721;SDS011;858;53.190;8.596;2023-05-27T11:59:56;12.70;;;7.47;;
1721;SDS011;858;53.190;8.596;2023-05-27T12:02:22;13.50;;;5.60;;
1721;SDS011;858;53.190;8.596;2023-05-27T12:04:48;12.57;;;6.20;;
1721;SDS011;858;53.190;8.596;2023-05-27T12:07:15;16.70;;;5.70;;
1721;SDS011;858;53.190;8.596;2023-05-27T12:09:42;9.13;;;5.67;;
1721;SDS011;858;53.190;8.596;2023-05-27T12:12:08;14.57;;;5.90;;
1721;SDS011;858;53.190;8.596;2023-05-27T12:14:36;13.53;;;5.80;;
1721;SDS011;858;53.190;8.596;2023-05-27T12:17:02;17.63;;;6.20;;
1721;SDS011;858;53.190;8.596;2023-05-27T12:19:29;12.17;;;6.80;;
1721;SDS011;858;53.190;8.596;2023-05-27T12:21:59;14.03;;;6.50;;
1721;SDS011;858;53.190;8.596;2023-05-27T12:24:25;9.97;;;5.90;;
1721;SDS011;858;53.190;8.596;2023-05-27T12:26:52;12.80;;;5.97;;
1721;SDS011;858;53.190;8.596;2023-05-27T12:29:18;11.50;;;6.20;;
1721;SDS011;858;53.190;8.596;2023-05-27T12:31:48;13.90;;;6.47;;
1721;SDS011;858;53.190;8.596;2023-05-27T12:34:15;15.10;;;5.03;;
1721;SDS011;858;53.190;8.596;2023-05-27T12:36:41;9.30;;;5.40;;
1721;SDS011;858;53.190;8.596;2023-05-27T12:39:08;10.63;;;5.70;;
1721;SDS011;858;53.190;8.596;2023-05-27T12:41:37;9.60;;;5.30;;
1721;SDS011;858;53.190;8.596;2023-05-27T12:44:04;19.73;;;6.57;;
1721;SDS011;858;53.190;8.596;2023-05-27T12:46:31;13.33;;;5.87;;
1721;SDS011;858;53.190;8.596;2023-05-27T12:48:59;11.23;;;5.93;;
1721;SDS011;858;53.190;8.596;2023-05-27T12:51:25;7.33;;;5.40;;
1721;SDS011;858;53.190;8.596;2023-05-27T12:53:52;14.80;;;5.43;;
1721;SDS011;858;53.190;8.596;2023-05-27T12:56:18;11.33;;;6.60;;
1721;SDS011;858;53.190;8.596;2023-05-27T12:58:45;17.03;;;5.70;;
1721;SDS011;858;53.190;8.596;2023-05-27T13:01:12;12.20;;;4.97;;
1721;SDS011;858;53.190;8.596;2023-05-27T13:03:38;10.53;;;5.53;;
1721;SDS011;858;53.190;8.596;2023-05-27T13:06:06;11.80;;;5.77;;
1721;SDS011;858;53.190;8.596;2023-05-27T13:08:33;11.60;;;5.97;;
1721;SDS011;858;53.190;8.596;2023-05-27T13:10:59;11.33;;;5.70;;
1721;SDS011;858;53.190;8.596;2023-05-27T13:13:28;11.97;;;6.50;;
1721;SDS011;858;53.190;8.596;2023-05-27T13:15:55;9.00;;;4.87;;
1721;SDS011;858;53.190;8.596;2023-05-27T13:18:22;9.90;;;4.90;;
1721;SDS011;858;53.190;8.596;2023-05-27T13:20:49;9.90;;;5.27;;
1721;SDS011;858;53.190;8.596;2023-05-27T13:23:17;14.73;;;5.80;;
1721;SDS011;858;53.190;8.596;2023-05-27T13:25:43;13.20;;;5.50;;
1721;SDS011;858;53.190;8.596;2023-05-27T13:28:10;16.70;;;6.50;;
1721;SDS011;858;53.190;8.596;2023-05-27T13:30:36;11.77;;;5.70;;
1721;SDS011;858;53.190;8.596;2023-05-27T13:33:03;12.07;;;5.50;;
1721;SDS011;858;53.190;8.596;2023-05-27T13:35:31;18.90;;;7.03;;
1721;SDS011;858;53.190;8.596;2023-05-27T13:37:57;14.27;;;6.60;;
1721;SDS011;858;53.190;8.596;2023-05-27T13:40:26;11.07;;;5.67;;
1721;SDS011;858;53.190;8.596;2023-05-27T13:42:53;10.37;;;5.40;;
1721;SDS011;858;53.190;8.596;2023-05-27T13:45:19;10.10;;;5.97;;
1721;SDS011;858;53.190;8.596;2023-05-27T13:47:45;15.33;;;6.10;;
1721;SDS011;858;53.190;8.596;2023-05-27T13:50:11;12.50;;;5.90;;
1721;SDS011;858;53.190;8.596;2023-05-27T13:52:38;15.80;;;5.93;;
1721;SDS011;858;53.190;8.596;2023-05-27T13:55:05;8.07;;;5.93;;
1721;SDS011;858;53.190;8.596;2023-05-27T13:57:33;13.33;;;6.30;;
1721;SDS011;858;53.190;8.596;2023-05-27T13:59:59;10.00;;;5.27;;
1721;SDS011;858;53.190;8.596;2023-05-27T14:02:26;11.67;;;6.40;;
1721;SDS011;858;53.190;8.596;2023-05-27T14:04:53;7.93;;;5.47;;
1721;SDS011;858;53.190;8.596;2023-05-27T14:07:20;11.23;;;5.67;;
1721;SDS011;858;53.190;8.596;2023-05-27T14:09:48;22.33;;;5.50;;
1721;SDS011;858;53.190;8.596;2023-05-27T14:12:14;12.07;;;5.40;;
1721;SDS011;858;53.190;8.596;2023-05-27T14:14:42;13.50;;;6.30;;
1721;SDS011;858;53.190;8.596;2023-05-27T14:17:08;14.30;;;5.63;;
1721;SDS011;858;53.190;8.596;2023-05-27T14:19:35;15.10;;;5.87;;
1721;SDS011;858;53.190;8.596;2023-05-27T14:22:01;18.33;;;6.60;;
1721;SDS011;858;53.190;8.596;2023-05-27T14:24:28;13.90;;;5.60;;
1721;SDS011;858;53.190;8.596;2023-05-27T14:26:56;13.93;;;6.00;;
1721;SDS011;858;53.190;8.596;2023-05-27T14:29:22;12.60;;;5.53;;
1721;SDS011;858;53.190;8.596;2023-05-27T14:31:50;14.93;;;6.13;;
1721;SDS011;858;53.190;8.596;2023-05-27T14:34:16;8.20;;;5.03;;
1721;SDS011;858;53.190;8.596;2023-05-27T14:36:42;11.40;;;5.50;;
1721;SDS011;858;53.190;8.596;2023-05-27T14:39:09;11.30;;;5.77;;
1721;SDS011;858;53.190;8.596;2023-05-27T14:41:35;14.90;;;6.83;;
1721;SDS011;858;53.190;8.596;2023-05-27T14:44:01;16.57;;;5.77;;
1721;SDS011;858;53.190;8.596;2023-05-27T14:46:29;17.90;;;6.30;;
1721;SDS011;858;53.190;8.596;2023-05-27T14:48:57;13.23;;;5.07;;
1721;SDS011;858;53.190;8.596;2023-05-27T14:51:24;12.30;;;5.47;;
1721;SDS011;858;53.190;8.596;2023-05-27T14:53:51;10.90;;;5.90;;
1721;SDS011;858;53.190;8.596;2023-05-27T14:56:17;14.47;;;4.77;;
1721;SDS011;858;53.190;8.596;2023-05-27T14:58:43;10.03;;;5.70;;
1721;SDS011;858;53.190;8.596;2023-05-27T15:01:11;11.90;;;5.17;;
1721;SDS011;858;53.190;8.596;2023-05-27T15:03:37;17.73;;;6.43;;
1721;SDS011;858;53.190;8.596;2023-05-27T15:06:05;10.30;;;5.20;;
1721;SDS011;858;53.190;8.596;2023-05-27T15:08:33;11.80;;;5.43;;
1721;SDS011;858;53.190;8.596;2023-05-27T15:11:00;12.03;;;4.90;;
1721;SDS011;858;53.190;8.596;2023-05-27T15:13:27;21.73;;;6.70;;